Tiempo atmosférico en la estación meteorológica de Navalvillar De Pela, Badajoz (308 m.)



Fecha
DESCASC
Temp. máxima en grados centígrados (hora)
DESCASC
Temp. mínima en grados centígrados (hora)
DESCASC
Temp. media en grados centígrados
DESCASC
Racha de viento máxima en m/sg (hora)
DESCASC
Velocidad máxima media en intervalos de 10 minutos(hora)
DESCASC
Precipitaciones diarias en mm
DESCASC
Precipitaciones de 00:00 a 06:00 en mm
DESCASC
Precipitaciones de 06:00 a 12:00 en mm
DESCASC
Precipitaciones de 12:00 a 18:00 en mm
DESCASC
Precipitaciones de 18:00 a 24:00 en mm
DESCASC
23-06-2019 33 (17:40) 18.5 (07:50) 25.8 8.89 (02:50) 5.28 (03:00) 0 0 0 0 0
22-06-2019 33.9 (17:50) 15.9 (07:30) 24.9 8.33 (14:40) 4.72 (14:30) 0 0 0 0 0
21-06-2019 30.7 (18:40) 14 (07:00) 22.4 9.17 (00:20) 5.83 (00:20) 0 0 0 0 0
20-06-2019 28.3 (18:10) 17.6 (00:00) 22.9 11.11 (18:20) 6.39 (20:40) 0 0 0 0 0
19-06-2019 -- (--) -- (--) -- -- (--) -- (--) -- 0 -- -- --
18-06-2019 29.2 (17:40) 17.9 (00:00) 23.6 -- (--) -- (--) 0 0 0 0 0
17-06-2019 33.5 (17:30) 15.2 (00:00) 24.3 10 (02:40) 5.83 (02:40) 0 0 0 0 0
16-06-2019 31.7 (18:40) 12.2 (00:00) 22 6.94 (19:20) 4.17 (15:00) 0 0 0 0 0
15-06-2019 26.8 (18:50) 12.8 (00:00) 19.8 6.11 (12:40) 3.61 (12:50) 0 0 0 0 0
14-06-2019 23.3 (18:00) 12 (00:00) 17.6 12.78 (19:10) 7.78 (19:10) 0 0 0 0 0
13-06-2019 27.9 (17:10) 12.1 (00:00) 20 9.44 (06:30) 6.11 (20:30) 0 0 0 0 0
12-06-2019 28.5 (18:00) 10.5 (00:00) 19.5 9.44 (16:30) 5.28 (16:30) 0 0 0 0 0
11-06-2019 28.5 (16:40) 12.6 (00:00) 20.6 12.22 (15:30) 7.22 (15:40) 0 0 0 0 0
10-06-2019 29 (18:50) 13.6 (00:00) 21.3 10.56 (17:50) 5.83 (17:50) 0 0 0 0 0
09-06-2019 27.7 (18:10) 13.7 (00:00) 20.7 12.5 (21:10) 7.78 (20:40) 0 0 0 0 0
08-06-2019 28.8 (18:20) 10.4 (00:00) 19.6 8.61 (16:20) 5 (16:00) 0 0 0 0 0
07-06-2019 24.3 (18:00) 11.4 (00:00) 17.8 14.44 (01:50) 9.17 (01:50) 0 0 0 0 0
06-06-2019 25.6 (19:00) 11.2 (00:00) 18.4 12.5 (19:40) 7.78 (20:40) 0 0 0 0 0
05-06-2019 23.5 (18:40) 11.6 (00:00) 17.6 12.22 (12:40) 7.22 (09:10) 0 0 0 0 0
04-06-2019 27.7 (18:00) 17.7 (00:00) 22.7 12.22 (20:30) 7.78 (20:00) 0 0 0 0 0
03-06-2019 34.9 (18:00) 21.2 (00:00) 28.1 9.17 (19:10) 5.83 (19:20) 0 0 0 0 0
02-06-2019 36.5 (18:10) 20 (00:00) 28.3 9.44 (22:40) 4.44 (22:50) 0 0 0 0 0
01-06-2019 36.3 (19:00) 15.6 (00:00) 25.9 5.83 (16:50) 2.78 (13:30) 0 0 0 0 0
31-05-2019 35.6 (17:50) 16.1 (00:00) 25.8 7.5 (15:30) 4.44 (14:40) 0 0 0 0 0
30-05-2019 33.9 (17:50) 17 (00:00) 25.5 11.39 (16:40) 6.39 (09:50) 0 0 0 0 0
29-05-2019 31.9 (18:20) 15.2 (00:00) 23.5 10 (11:10) 5.83 (09:20) 0 0 0 0 0
28-05-2019 33.7 (18:10) 14.9 (00:00) 24.3 9.17 (23:59) 4.44 (17:40) 0 0 0 0 0
27-05-2019 33.6 (17:10) 14.1 (00:00) 23.8 9.72 (17:10) 5.28 (18:40) 0 0 0 0 0
26-05-2019 31.6 (18:10) 15.5 (00:00) 23.6 8.61 (12:20) 5 (10:20) 0 0 0 0 0
25-05-2019 28.7 (18:20) 13.9 (00:00) 21.3 10.56 (17:20) 6.67 (09:40) 0 0 0 0 0

Gráficas

Temp. máximas Temp. mínimas Temp. medias Precipitaciones Rachas de viento máximas Velocidades máximas media en intervalos de 10 minutos

Datos horarios

Fecha y hora oficial Temperatura (ºC) Velocidad del viento (km/h) Dirección del viento Racha (km/h) Dirección de racha Precipitación (mm) Presión (hPa) Tendencia (hPa) Humedad (%)
2019-06-23 23:00:00 26.9 11 Noroeste 25 Noroeste 0 -- -- 30
2019-06-23 22:00:00 28.4 15 Noroeste 23 Noroeste 0 -- -- 29
2019-06-23 21:00:00 30 12 Noroeste 22 Noroeste 0 -- -- 28
2019-06-23 20:00:00 30.7 11 Noroeste 26 Noroeste 0 -- -- 27
2019-06-23 19:00:00 31.1 15 Noroeste 26 Noroeste 0 -- -- 27
2019-06-23 18:00:00 32.8 15 Norte 28 Noroeste 0 -- -- 26
2019-06-23 17:00:00 32.4 11 Norte 22 Noroeste 0 -- -- 26
2019-06-23 16:00:00 32.4 9 Norte 26 Noroeste 0 -- -- 26
2019-06-23 15:00:00 30.8 8 Norte 22 Norte 0 -- -- 27
2019-06-23 14:00:00 29.9 12 Norte 21 Norte 0 -- -- 29
2019-06-23 13:00:00 28.9 9 Nordeste 18 Nordeste 0 -- -- 31
2019-06-23 12:00:00 26.9 9 Norte 16 Noroeste 0 -- -- 34
2019-06-23 11:00:00 25.6 6 Este 13 Este 0 -- -- 35
2019-06-23 10:00:00 23.1 5 Nordeste 12 Nordeste 0 -- -- 39
2019-06-23 09:00:00 20.7 4 Nordeste 8 Norte 0 -- -- 48
2019-06-23 08:00:00 18.7 4 Este 12 Oeste 0 -- -- 43
2019-06-23 07:00:00 19.5 7 Noroeste 24 Noroeste 0 -- -- 41
2019-06-23 06:00:00 20.1 15 Noroeste 25 Oeste 0 -- -- 38
2019-06-23 05:00:00 20.8 17 Oeste 31 Oeste 0 -- -- 36
2019-06-23 04:00:00 21.8 16 Noroeste 28 Noroeste 0 -- -- 32
2019-06-23 03:00:00 23.1 19 Noroeste 32 Noroeste 0 -- -- 29
2019-06-23 02:00:00 24.7 11 Noroeste 19 Noroeste 0 -- -- 27
2019-06-23 01:00:00 25.9 13 Noroeste 23 Noroeste 0 -- -- 27
2019-06-23 00:00:00 26.8 12 Noroeste 20 Oeste 0 -- -- 27
2019-06-22 23:00:00 27.7 13 Noroeste 22 Oeste 0 -- -- 30
2019-06-22 22:00:00 28.8 9 Oeste 13 Noroeste 0 -- -- 31
2019-06-22 21:00:00 31.3 10 Noroeste 19 Noroeste 0 -- -- 28
2019-06-22 20:00:00 33.7 9 Noroeste 16 Noroeste 0 -- -- 23
2019-06-22 19:00:00 33.4 6 Este 18 Sudeste 0 -- -- 24
2019-06-22 18:00:00 33.6 7 Nordeste 25 Nordeste 0 -- -- 24
2019-06-22 17:00:00 33.1 10 Nordeste 19 Nordeste 0 -- -- 26
2019-06-22 16:00:00 32.1 8 Nordeste 27 Norte 0 -- -- 26
2019-06-22 15:00:00 31.8 15 Norte 30 Norte 0 -- -- 26
2019-06-22 14:00:00 30.8 11 Norte 24 Norte 0 -- -- 30
2019-06-22 13:00:00 28.6 6 Norte 15 Norte 0 -- -- 40
2019-06-22 12:00:00 27.2 6 Noroeste 12 Este 0 -- -- 43
2019-06-22 11:00:00 24.6 6 Nordeste 9 Este 0 -- -- 49
2019-06-22 10:00:00 22.4 4 Nordeste 9 Este 0 -- -- 55
2019-06-22 09:00:00 19.7 2 Este 5 Sudeste 0 -- -- 64
2019-06-22 08:00:00 16.6 3 Sudeste 6 Sudeste 0 -- -- 70
2019-06-22 07:00:00 16.3 3 Norte 6 Sur 0 -- -- 68
2019-06-22 06:00:00 16.4 3 Sur 8 Sudoeste 0 -- -- 66
2019-06-22 05:00:00 17.6 4 Sudoeste 15 Oeste 0 -- -- 61
2019-06-22 04:00:00 20 8 Noroeste 17 Noroeste 0 -- -- 56
2019-06-22 03:00:00 19.2 7 Este 15 Oeste 0 -- -- 55
2019-06-22 02:00:00 22.5 8 Oeste 13 Oeste 0 -- -- 47
2019-06-22 01:00:00 22.6 5 Norte 15 Noroeste 0 -- -- 50
2019-06-22 00:00:00 25.3 9 Noroeste 18 Oeste 0 -- -- 36
2019-06-21 23:00:00 26 11 Oeste 18 Noroeste 0 -- -- 36
2019-06-21 22:00:00 27 10 Noroeste 23 Oeste 0 -- -- 36
2019-06-21 21:00:00 28.3 13 Oeste 22 Oeste 0 -- -- 33
2019-06-21 20:00:00 30 8 Noroeste 19 Noroeste 0 -- -- 30
2019-06-21 19:00:00 30.5 7 Noroeste 22 Noroeste 0 -- -- 31
2019-06-21 18:00:00 30.3 9 Noroeste 23 Norte 0 -- -- 31
2019-06-21 17:00:00 29.5 6 Noroeste 19 Noroeste 0 -- -- 34
2019-06-21 16:00:00 28.6 11 Noroeste 19 Noroeste 0 -- -- 35
2019-06-21 15:00:00 26.8 7 Nordeste 23 Norte 0 -- -- 37
2019-06-21 14:00:00 25.1 10 Norte 27 Noroeste 0 -- -- 46
2019-06-21 13:00:00 23.7 13 Norte 25 Norte 0 -- -- 51
2019-06-21 12:00:00 21.5 10 Norte 19 Noroeste 0 -- -- 57
2019-06-21 11:00:00 19.9 9 Norte 16 Norte 0 -- -- 61
2019-06-21 10:00:00 18.3 9 Noroeste 13 Norte 0 -- -- 65
2019-06-21 09:00:00 16.6 11 Noroeste 16 Noroeste 0 -- -- 71
2019-06-21 08:00:00 15.2 10 Noroeste 23 Oeste 0 -- -- 77
2019-06-21 07:00:00 14 13 Noroeste 29 Noroeste 0 -- -- 81
2019-06-21 06:00:00 14.9 14 Oeste 29 Oeste 0 -- -- 76
2019-06-21 05:00:00 15.8 20 Noroeste 33 Noroeste 0 -- -- 72
2019-06-21 04:00:00 17 17 Noroeste 27 Noroeste 0 -- -- 67
2019-06-21 03:00:00 18.5 16 Noroeste 28 Noroeste 0 -- -- 62
2019-06-21 02:00:00 19.5 15 Noroeste 29 Noroeste 0 -- -- 59
2019-06-21 01:00:00 20.5 17 Noroeste 33 Noroeste 0 -- -- 55
2019-06-21 00:00:00 21.8 19 Noroeste 32 Noroeste 0 -- -- 51
2019-06-20 23:00:00 22.9 18 Noroeste 34 Noroeste 0 -- -- 48
2019-06-20 22:00:00 24.4 18 Noroeste 33 Noroeste 0 -- -- 42
2019-06-20 21:00:00 26.3 18 Noroeste 36 Noroeste 0 -- -- 37
2019-06-20 20:00:00 26.7 21 Noroeste 33 Noroeste 0 -- -- 35
2019-06-20 19:00:00 27.7 18 Noroeste 40 Noroeste 0 -- -- 36
2019-06-20 18:00:00 28 18 Noroeste 39 Norte 0 -- -- 39
2019-06-20 17:00:00 27.9 17 Noroeste 29 Noroeste 0 -- -- 41
2019-06-20 16:00:00 27.6 16 Noroeste 31 Noroeste 0 -- -- 44
2019-06-20 15:00:00 27.3 16 Noroeste 31 Noroeste 0 -- -- 44
2019-06-20 14:00:00 26.4 15 Noroeste 28 Noroeste 0 -- -- 45
2019-06-20 13:00:00 24.4 9 Norte 20 Norte 0 -- -- 52
2019-06-20 12:00:00 24.9 8 Norte 16 Noroeste 0 -- -- 49
2019-06-20 11:00:00 23.2 7 Noroeste 17 Noroeste 0 -- -- 54
2019-06-20 10:00:00 21.3 9 Noroeste 15 Noroeste 0 -- -- 60
2019-06-20 09:00:00 20.1 6 Noroeste 18 Oeste 0 -- -- 64
2019-06-20 08:00:00 19.2 8 Noroeste 18 Noroeste 0 -- -- 67
2019-06-20 07:00:00 17.6 12 Oeste 21 Oeste 0 -- -- 73
2019-06-20 06:00:00 18.3 13 Noroeste 23 Noroeste 0 -- -- 70
2019-06-20 05:00:00 18.8 12 Oeste 20 Noroeste 0 -- -- 68
2019-06-20 04:00:00 19.5 12 Noroeste 22 Noroeste 0 -- -- 66
2019-06-20 03:00:00 19.9 12 Noroeste 19 Noroeste 0 -- -- 64
2019-06-20 02:00:00 20.5 9 Noroeste 15 Noroeste 0 -- -- 61
2019-06-20 01:00:00 21.2 8 Noroeste 14 Noroeste 0 -- -- 58
2019-06-20 00:00:00 21.8 9 Noroeste 14 Noroeste 0 -- -- 57
2019-06-19 23:00:00 22.5 10 Noroeste 17 Noroeste 0 -- -- 55
2019-06-19 22:00:00 -- -- -- -- -- -- -- -- --
2019-06-19 21:00:00 -- -- -- -- -- -- -- -- --
2019-06-19 20:00:00 -- -- -- -- -- -- -- -- --
2019-06-19 19:00:00 -- -- -- -- -- -- -- -- --
2019-06-19 18:00:00 -- -- -- -- -- -- -- -- --
2019-06-19 17:00:00 -- -- -- -- -- -- -- -- --
2019-06-19 16:00:00 -- -- -- -- -- -- -- -- --
2019-06-19 15:00:00 -- -- -- -- -- -- -- -- --
2019-06-19 14:00:00 -- -- -- -- -- -- -- -- --
2019-06-19 13:00:00 23 9 Noroeste 22 Oeste 0 -- -- 54
2019-06-19 12:00:00 21.8 11 Noroeste 24 Noroeste 0 -- -- 60
2019-06-19 11:00:00 20.7 11 Noroeste 22 Noroeste 0 -- -- 64
2019-06-19 10:00:00 -- -- -- -- -- -- -- -- --
2019-06-19 09:00:00 18.2 9 Oeste 21 Oeste 0 -- -- 75
2019-06-19 08:00:00 -- -- -- -- -- -- -- -- --
2019-06-19 07:00:00 -- -- -- -- -- -- -- -- --
2019-06-19 06:00:00 -- -- -- -- -- -- -- -- --
2019-06-19 05:00:00 -- -- -- -- -- -- -- -- --
2019-06-19 04:00:00 -- -- -- -- -- -- -- -- --
2019-06-19 03:00:00 -- -- -- -- -- -- -- -- --
2019-06-19 02:00:00 -- -- -- -- -- -- -- -- --
2019-06-19 01:00:00 -- -- -- -- -- -- -- -- --
2019-06-19 00:00:00 -- -- -- -- -- -- -- -- --
2019-06-18 23:00:00 -- -- -- -- -- -- -- -- --
2019-06-18 22:00:00 24.6 -- -- -- -- 0 -- -- 50
2019-06-18 21:00:00 26.3 21 Noroeste 42 Noroeste 0 -- -- 44
2019-06-18 20:00:00 -- -- -- -- -- -- -- -- --
2019-06-18 19:00:00 28.4 22 Noroeste 40 Noroeste 0 -- -- 39
2019-06-18 18:00:00 28.9 23 Noroeste 41 Noroeste 0 -- -- 40
2019-06-18 17:00:00 28.5 15 Noroeste 35 Norte 0 -- -- 37
2019-06-18 16:00:00 28.4 18 Norte 35 Noroeste 0 -- -- 32
2019-06-18 15:00:00 27.5 17 Norte 34 Noroeste 0 -- -- 28
2019-06-18 14:00:00 27.6 15 Noroeste 28 Noroeste 0 -- -- 26
2019-06-18 13:00:00 25.6 11 Noroeste 22 Noroeste 0 -- -- 29
2019-06-18 12:00:00 24 9 Noroeste 19 Noroeste 0 -- -- 34
2019-06-18 11:00:00 22.4 9 Nordeste 15 Nordeste 0 -- -- 41
2019-06-18 10:00:00 21 9 Noroeste 17 Norte 0 -- -- 40
2019-06-18 09:00:00 20.2 12 Noroeste 22 Noroeste 0 -- -- 43
2019-06-18 08:00:00 19.1 6 Oeste 13 Noroeste 0 -- -- 41
2019-06-18 07:00:00 18.1 8 Noroeste 13 Oeste 0 -- -- 40
2019-06-18 06:00:00 19.4 3 Noroeste 12 Noroeste 0 -- -- 45
2019-06-18 05:00:00 20.3 8 Oeste 15 Oeste 0 -- -- 43
2019-06-18 04:00:00 21.8 12 Oeste 22 Oeste 0 -- -- 36
2019-06-18 03:00:00 23.1 9 Oeste 18 Noroeste 0 -- -- 28
2019-06-18 02:00:00 23 4 Nordeste 15 Noroeste 0 -- -- 36
2019-06-18 01:00:00 25 8 Noroeste 22 Oeste 0 -- -- 26
2019-06-18 00:00:00 26.3 13 Oeste 28 Noroeste 0 -- -- 25
2019-06-17 23:00:00 27.8 13 Oeste 29 Sudoeste 0 -- -- 24
2019-06-17 22:00:00 27.8 11 Sudoeste 18 Oeste 0 -- -- 19
2019-06-17 21:00:00 30.7 9 Noroeste 23 Noroeste 0 -- -- 19
2019-06-17 20:00:00 31.5 12 Norte 25 Noroeste 0 -- -- 19
2019-06-17 19:00:00 32.5 13 Noroeste 26 Noroeste 0 -- -- 19
2019-06-17 18:00:00 32.6 10 Noroeste 33 Sudoeste 0 -- -- 20
2019-06-17 17:00:00 33.4 17 Sudoeste 31 Sudoeste 0 -- -- 16
2019-06-17 16:00:00 32 14 Sudoeste 34 Sur 0 -- -- 19
2019-06-17 15:00:00 31.1 12 Sudoeste 28 Sur 0 -- -- 22
2019-06-17 14:00:00 29.7 14 Sur 27 Sudoeste 0 -- -- 24
2019-06-17 13:00:00 28.6 12 Sur 23 Sudoeste 0 -- -- 25
2019-06-17 12:00:00 26.5 7 Sudoeste 18 Oeste 0 -- -- 29
2019-06-17 11:00:00 24.2 5 Norte 10 Nordeste 0 -- -- 40
2019-06-17 10:00:00 21.6 4 Nordeste 10 Nordeste 0 -- -- 49
2019-06-17 09:00:00 19.8 5 Este 9 Este 0 -- -- 52
2019-06-17 08:00:00 17.7 3 Sur 7 Sudeste 0 -- -- 53
2019-06-17 07:00:00 15.2 7 Sudeste 20 Oeste 0 -- -- 58
2019-06-17 06:00:00 18.8 13 Oeste 21 Oeste 0 -- -- 57
2019-06-17 05:00:00 19.1 6 Noroeste 20 Oeste 0 -- -- 53
2019-06-17 04:00:00 20.2 11 Noroeste 32 Noroeste 0 -- -- 47
2019-06-17 03:00:00 21.6 21 Noroeste 36 Noroeste 0 -- -- 40
2019-06-17 02:00:00 23.8 21 Oeste 35 Oeste 0 -- -- 30
2019-06-17 01:00:00 22.8 3 Noroeste 18 Oeste 0 -- -- 37
2019-06-17 00:00:00 25.1 13 Oeste 20 Oeste 0 -- -- 29
2019-06-16 23:00:00 25.3 12 Oeste 18 Oeste 0 -- -- 30
2019-06-16 22:00:00 26.2 7 Oeste 14 Noroeste 0 -- -- 28
2019-06-16 21:00:00 29.4 11 Norte 19 Noroeste 0 -- -- 24
2019-06-16 20:00:00 30.7 12 Norte 25 Norte 0 -- -- 21
2019-06-16 19:00:00 31.6 13 Norte 23 Noroeste 0 -- -- 20
2019-06-16 18:00:00 30.9 8 Nordeste 25 Norte 0 -- -- 20
2019-06-16 17:00:00 30.7 13 Norte 23 Norte 0 -- -- 22
2019-06-16 16:00:00 30.1 13 Norte 23 Norte 0 -- -- 24
2019-06-16 15:00:00 28.7 15 Norte 20 Norte 0 -- -- 27
2019-06-16 14:00:00 28.5 10 Norte 17 Noroeste 0 -- -- 29
2019-06-16 13:00:00 27.3 10 Norte 17 Noroeste 0 -- -- 30
2019-06-16 12:00:00 26.4 5 Nordeste 11 Norte 0 -- -- 30
2019-06-16 11:00:00 23.5 4 Nordeste 8 Nordeste 0 -- -- 35
2019-06-16 10:00:00 21 4 Este 6 Este 0 -- -- 48
2019-06-16 09:00:00 18 2 Este 6 Este 0 -- -- 53
2019-06-16 08:00:00 15.8 0 Calma 3 Nordeste 0 -- -- 57
2019-06-16 07:00:00 12.2 0 Calma 3 Sudoeste 0 -- -- 63
2019-06-16 06:00:00 13.4 0 Calma 5 Sur 0 -- -- 57
2019-06-16 05:00:00 13.9 6 Sudeste 11 Este 0 -- -- 57
2019-06-16 04:00:00 15 3 Sur 11 Sur 0 -- -- 55
2019-06-16 03:00:00 15.5 4 Sur 6 Sur 0 -- -- 51
2019-06-16 02:00:00 16 4 Sudoeste 5 Oeste 0 -- -- 51
2019-06-16 01:00:00 17.1 3 Oeste 5 Oeste 0 -- -- 51
2019-06-16 00:00:00 17.9 2 Sudoeste 5 Oeste 0 -- -- 42
2019-06-15 23:00:00 20.1 4 Oeste 8 Oeste 0 -- -- 38
2019-06-15 22:00:00 23 5 Noroeste 13 Noroeste 0 -- -- 34
2019-06-15 21:00:00 25.8 8 Noroeste 15 Noroeste 0 -- -- 29
2019-06-15 20:00:00 26.5 3 Oeste 16 Norte 0 -- -- 27
2019-06-15 19:00:00 26.6 6 Nordeste 15 Noroeste 0 -- -- 28
2019-06-15 18:00:00 26.1 6 Noroeste 18 Nordeste 0 -- -- 26
2019-06-15 17:00:00 26.1 5 Este 18 Noroeste 0 -- -- 27
2019-06-15 16:00:00 25 7 Norte 19 Oeste 0 -- -- 27
2019-06-15 15:00:00 23.5 6 Oeste 21 Noroeste 0 -- -- 30
2019-06-15 14:00:00 22.4 11 Noroeste 21 Noroeste 0 -- -- 37
2019-06-15 13:00:00 21.2 12 Norte 22 Norte 0 -- -- 38
2019-06-15 12:00:00 20.3 10 Norte 21 Norte 0 -- -- 43
2019-06-15 11:00:00 18.6 7 Noroeste 19 Noroeste 0 -- -- 47
2019-06-15 10:00:00 17.4 8 Noroeste 17 Norte 0 -- -- 52
2019-06-15 09:00:00 16.1 10 Noroeste 16 Noroeste 0 -- -- 56
2019-06-15 08:00:00 14.6 10 Noroeste 16 Noroeste 0 -- -- 61
2019-06-15 07:00:00 12.8 9 Noroeste 14 Noroeste 0 -- -- 66
2019-06-15 06:00:00 12.8 8 Noroeste 14 Noroeste 0 -- -- 65
2019-06-15 05:00:00 13.2 9 Noroeste 16 Noroeste 0 -- -- 63
2019-06-15 04:00:00 14.1 8 Noroeste 20 Noroeste 0 -- -- 60
2019-06-15 03:00:00 14.7 9 Noroeste 16 Oeste 0 -- -- 58
2019-06-15 02:00:00 15 9 Noroeste 16 Noroeste 0 -- -- 56
2019-06-15 01:00:00 15.7 8 Noroeste 15 Noroeste 0 -- -- 54
2019-06-15 00:00:00 16.5 9 Noroeste 17 Noroeste 0 -- -- 52
2019-06-14 23:00:00 17.6 11 Noroeste 23 Noroeste 0 -- -- 48
2019-06-14 22:00:00 18.9 14 Noroeste 34 Noroeste 0 -- -- 41
2019-06-14 21:00:00 20.6 19 Noroeste 40 Noroeste 0 -- -- 37
2019-06-14 20:00:00 21.8 20 Noroeste 46 Noroeste 0 -- -- 34
2019-06-14 19:00:00 22.3 24 Noroeste 42 Noroeste 0 -- -- 35
2019-06-14 18:00:00 23.3 21 Noroeste 41 Oeste 0 -- -- 32
2019-06-14 17:00:00 22.3 23 Noroeste 42 Noroeste 0 -- -- 34
2019-06-14 16:00:00 22.6 24 Noroeste 44 Noroeste 0 -- -- 33
2019-06-14 15:00:00 21.6 23 Noroeste 45 Noroeste 0 -- -- 35
2019-06-14 14:00:00 21.4 22 Noroeste 38 Noroeste 0 -- -- 37
2019-06-14 13:00:00 20.3 21 Noroeste 36 Noroeste 0 -- -- 39
2019-06-14 12:00:00 19.1 15 Noroeste 32 Oeste 0 -- -- 38
2019-06-14 11:00:00 18 13 Noroeste 28 Noroeste 0 -- -- 46
2019-06-14 10:00:00 15.3 10 Noroeste 24 Noroeste 0 -- -- 57
2019-06-14 09:00:00 14 13 Noroeste 22 Oeste 0 -- -- 63
2019-06-14 08:00:00 13.2 12 Noroeste 19 Noroeste 0 -- -- 66
2019-06-14 07:00:00 12 11 Oeste 23 Noroeste 0 -- -- 70
2019-06-14 06:00:00 12.9 8 Oeste 23 Oeste 0 -- -- 64
2019-06-14 05:00:00 13.6 15 Noroeste 32 Oeste 0 -- -- 61
2019-06-14 04:00:00 14.6 19 Noroeste 31 Noroeste 0 -- -- 57
2019-06-14 03:00:00 16.1 19 Noroeste 30 Noroeste 0 -- -- 52
2019-06-14 02:00:00 17.9 17 Noroeste 30 Noroeste 0 -- -- 43
2019-06-14 01:00:00 19.8 18 Noroeste 29 Noroeste 0 -- -- 35
2019-06-14 00:00:00 21 18 Noroeste 30 Oeste 0 -- -- 32
2019-06-13 23:00:00 22.1 15 Oeste 24 Oeste 0 -- -- 31
2019-06-13 22:00:00 23.1 10 Noroeste 26 Noroeste 0 -- -- 29
2019-06-13 21:00:00 25.1 18 Noroeste 32 Noroeste 0 -- -- 27
2019-06-13 20:00:00 26.4 20 Noroeste 32 Noroeste 0 -- -- 28
2019-06-13 19:00:00 26.1 18 Noroeste 32 Noroeste 0 -- -- 28
2019-06-13 18:00:00 27.3 20 Noroeste 31 Noroeste 0 -- -- 27
2019-06-13 17:00:00 27.6 14 Norte 27 Noroeste 0 -- -- 26
2019-06-13 16:00:00 27.5 14 Noroeste 24 Noroeste 0 -- -- 27
2019-06-13 15:00:00 25.9 11 Norte 21 Norte 0 -- -- 30
2019-06-13 14:00:00 24.2 9 Norte 18 Norte 0 -- -- 33
2019-06-13 13:00:00 22.1 7 Norte 15 Norte 0 -- -- 40
2019-06-13 12:00:00 20.2 5 Nordeste 14 Nordeste 0 -- -- 44
2019-06-13 11:00:00 18.3 6 Este 9 Nordeste 0 -- -- 48
2019-06-13 10:00:00 15.8 5 Norte 13 Noroeste 0 -- -- 56
2019-06-13 09:00:00 14.5 10 Norte 20 Noroeste 0 -- -- 58
2019-06-13 08:00:00 12.7 14 Noroeste 20 Noroeste 0 -- -- 63
2019-06-13 07:00:00 12.1 16 Noroeste 34 Noroeste 0 -- -- 63
2019-06-13 06:00:00 13.2 17 Noroeste 24 Noroeste 0 -- -- 56
2019-06-13 05:00:00 14.5 10 Oeste 28 Oeste 0 -- -- 52
2019-06-13 04:00:00 15.9 10 Noroeste 27 Noroeste 0 -- -- 49
2019-06-13 03:00:00 17.6 17 Noroeste 26 Noroeste 0 -- -- 42
2019-06-13 02:00:00 19.2 15 Noroeste 27 Noroeste 0 -- -- 36
2019-06-13 01:00:00 20.8 16 Noroeste 27 Noroeste 0 -- -- 29
2019-06-13 00:00:00 21.9 12 Noroeste 19 Oeste 0 -- -- 22
2019-06-12 23:00:00 22.4 9 Oeste 13 Oeste 0 -- -- 22
2019-06-12 22:00:00 23.7 5 Oeste 16 Noroeste 0 -- -- 20
2019-06-12 21:00:00 26.6 12 Noroeste 23 Noroeste 0 -- -- 16
2019-06-12 20:00:00 27.7 14 Norte 26 Noroeste 0 -- -- 15
2019-06-12 19:00:00 28.2 12 Norte 30 Noroeste 0 -- -- 14
2019-06-12 18:00:00 28.5 12 Norte 29 Noroeste 0 -- -- 15
2019-06-12 17:00:00 28.1 16 Noroeste 34 Noroeste 0 -- -- 18
2019-06-12 16:00:00 27.4 16 Norte 33 Noroeste 0 -- -- 18
2019-06-12 15:00:00 27.1 15 Norte 26 Norte 0 -- -- 18
2019-06-12 14:00:00 25.9 10 Norte 23 Norte 0 -- -- 19
2019-06-12 13:00:00 25 9 Norte 21 Noroeste 0 -- -- 21
2019-06-12 12:00:00 24.1 8 Nordeste 16 Este 0 -- -- 25
2019-06-12 11:00:00 21.9 6 Sudeste 14 Este 0 -- -- 28
2019-06-12 10:00:00 20.1 10 Este 13 Este 0 -- -- 29
2019-06-12 09:00:00 16.9 5 Este 9 Este 0 -- -- 34
2019-06-12 08:00:00 13.4 0 Calma 3 Sudeste 0 -- -- 43
2019-06-12 07:00:00 11.5 3 Sur 6 Sur 0 -- -- 41
2019-06-12 06:00:00 11 2 Sur 5 Sur 0 -- -- 42
2019-06-12 05:00:00 11.6 3 Sudeste 5 Sur 0 -- -- 40
2019-06-12 04:00:00 12.1 0 Calma 4 Sur 0 -- -- 38
2019-06-12 03:00:00 13.5 0 Calma 4 Sudoeste 0 -- -- 36
2019-06-12 02:00:00 14.2 3 Sur 5 Sur 0 -- -- 32
2019-06-12 01:00:00 15.4 0 Calma 3 Nordeste 0 -- -- 31
2019-06-12 00:00:00 17 4 Sudeste 7 Sur 0 -- -- 29
2019-06-11 23:00:00 18.9 4 Este 14 Nordeste 0 -- -- 26
2019-06-11 22:00:00 21.2 12 Nordeste 27 Este 0 -- -- 23
2019-06-11 21:00:00 23.9 20 Este 32 Este 0 -- -- 24
2019-06-11 20:00:00 25.9 22 Este 32 Este 0 -- -- 23
2019-06-11 19:00:00 26.7 19 Este 30 Este 0 -- -- 25
2019-06-11 18:00:00 27.5 25 Este 37 Este 0 -- -- 26
2019-06-11 17:00:00 27 11 Este 42 Oeste 0 -- -- 29
2019-06-11 16:00:00 27.5 19 Noroeste 44 Noroeste 0 -- -- 26
2019-06-11 15:00:00 26.1 23 Noroeste 41 Noroeste 0 -- -- 26
2019-06-11 14:00:00 25.5 23 Noroeste 41 Noroeste 0 -- -- 27
2019-06-11 13:00:00 24.4 21 Noroeste 37 Noroeste 0 -- -- 32
2019-06-11 12:00:00 22.8 23 Noroeste 36 Noroeste 0 -- -- 38
2019-06-11 11:00:00 20.3 15 Noroeste 36 Norte 0 -- -- 44
2019-06-11 10:00:00 17.4 15 Noroeste 28 Noroeste 0 -- -- 51
2019-06-11 09:00:00 15.5 21 Noroeste 34 Noroeste 0 -- -- 55
2019-06-11 08:00:00 13.5 21 Noroeste 37 Noroeste 0 -- -- 61
2019-06-11 07:00:00 12.7 24 Noroeste 40 Noroeste 0 -- -- 62
2019-06-11 06:00:00 13.4 24 Oeste 39 Oeste 0 -- -- 60
2019-06-11 05:00:00 14 21 Noroeste 36 Noroeste 0 -- -- 57
2019-06-11 04:00:00 15.3 20 Noroeste 34 Noroeste 0 -- -- 52
2019-06-11 03:00:00 17.3 22 Noroeste 39 Noroeste 0 -- -- 43
2019-06-11 02:00:00 18.7 18 Oeste 28 Oeste 0 -- -- 41
2019-06-11 01:00:00 20.2 17 Noroeste 27 Noroeste 0 -- -- 36
2019-06-11 00:00:00 21.3 17 Noroeste 27 Noroeste 0 -- -- 35
2019-06-10 23:00:00 22.6 16 Oeste 26 Oeste 0 -- -- 35
2019-06-10 22:00:00 24.1 10 Noroeste 24 Noroeste 0 -- -- 25
2019-06-10 21:00:00 26.3 16 Noroeste 32 Noroeste 0 -- -- 22
2019-06-10 20:00:00 28.1 20 Noroeste 33 Noroeste 0 -- -- 20
2019-06-10 19:00:00 28.7 19 Noroeste 36 Noroeste 0 -- -- 21
2019-06-10 18:00:00 28.7 18 Noroeste 38 Noroeste 0 -- -- 20
2019-06-10 17:00:00 28.3 19 Noroeste 33 Noroeste 0 -- -- 23
2019-06-10 16:00:00 27.8 15 Noroeste 33 Noroeste 0 -- -- 25
2019-06-10 15:00:00 26.7 15 Noroeste 31 Noroeste 0 -- -- 29
2019-06-10 14:00:00 25.4 13 Noroeste 27 Noroeste 0 -- -- 34
2019-06-10 13:00:00 23.3 12 Noroeste 23 Noroeste 0 -- -- 42
2019-06-10 12:00:00 21.1 11 Noroeste 25 Noroeste 0 -- -- 47
2019-06-10 11:00:00 19.2 12 Noroeste 23 Oeste 0 -- -- 52
2019-06-10 10:00:00 17.9 12 Noroeste 23 Noroeste 0 -- -- 54
2019-06-10 09:00:00 15.9 16 Noroeste 27 Noroeste 0 -- -- 63
2019-06-10 08:00:00 14.8 17 Noroeste 26 Oeste 0 -- -- 65
2019-06-10 07:00:00 13.7 18 Noroeste 30 Oeste 0 -- -- 69
2019-06-10 06:00:00 14.7 15 Noroeste 27 Oeste 0 -- -- 62
2019-06-10 05:00:00 15.5 12 Noroeste 23 Noroeste 0 -- -- 59
2019-06-10 04:00:00 16.1 14 Noroeste 23 Noroeste 0 -- -- 57
2019-06-10 03:00:00 17 14 Noroeste 26 Noroeste 0 -- -- 54
2019-06-10 02:00:00 17.9 15 Noroeste 24 Noroeste 0 -- -- 50
2019-06-10 01:00:00 19.1 14 Noroeste 27 Noroeste 0 -- -- 46
2019-06-10 00:00:00 20.1 15 Noroeste 31 Noroeste 0 -- -- 44
2019-06-09 23:00:00 21.4 22 Noroeste 38 Noroeste 0 -- -- 40
2019-06-09 22:00:00 22.8 20 Noroeste 45 Noroeste 0 -- -- 37
2019-06-09 21:00:00 24.8 23 Noroeste 44 Noroeste 0 -- -- 32
2019-06-09 20:00:00 26.8 20 Noroeste 38 Noroeste 0 -- -- 28
2019-06-09 19:00:00 27.3 21 Noroeste 36 Noroeste 0 -- -- 28
2019-06-09 18:00:00 27.6 17 Noroeste 34 Noroeste 0 -- -- 28
2019-06-09 17:00:00 26.6 18 Noroeste 32 Noroeste 0 -- -- 29
2019-06-09 16:00:00 25.5 17 Noroeste 39 Noroeste 0 -- -- 29
2019-06-09 15:00:00 24.9 18 Noroeste 33 Noroeste 0 -- -- 27
2019-06-09 14:00:00 23.4 14 Noroeste 30 Noroeste 0 -- -- 25
2019-06-09 13:00:00 21.9 16 Noroeste 30 Noroeste 0 -- -- 30
2019-06-09 12:00:00 20 10 Norte 25 Noroeste 0 -- -- 34
2019-06-09 11:00:00 18.5 11 Noroeste 29 Noroeste 0 -- -- 34
2019-06-09 10:00:00 16.5 18 Noroeste 26 Noroeste 0 -- -- 47
2019-06-09 09:00:00 14.8 16 Noroeste 25 Noroeste 0 -- -- 53
2019-06-09 08:00:00 14 16 Noroeste 29 Oeste 0 -- -- 54
2019-06-09 07:00:00 14.2 15 Noroeste 24 Noroeste 0 -- -- 54
2019-06-09 06:00:00 15.2 8 Noroeste 18 Oeste 0 -- -- 51
2019-06-09 05:00:00 16 10 Noroeste 27 Noroeste 0 -- -- 49
2019-06-09 04:00:00 17.2 18 Noroeste 27 Noroeste 0 -- -- 48
2019-06-09 03:00:00 18.6 15 Noroeste 29 Noroeste 0 -- -- 47
2019-06-09 02:00:00 20 13 Noroeste 27 Noroeste 0 -- -- 40
2019-06-09 01:00:00 21.3 14 Noroeste 26 Noroeste 0 -- -- 32
2019-06-09 00:00:00 22.8 15 Noroeste 30 Oeste 0 -- -- 26
2019-06-08 23:00:00 22.3 7 Oeste 11 Oeste 0 -- -- 29
2019-06-08 22:00:00 24.4 9 Noroeste 17 Noroeste 0 -- -- 25
2019-06-08 21:00:00 27.2 11 Noroeste 23 Noroeste 0 -- -- 21
2019-06-08 20:00:00 28.6 9 Norte 23 Noroeste 0 -- -- 20
2019-06-08 19:00:00 28.5 12 Norte 24 Noroeste 0 -- -- 21
2019-06-08 18:00:00 28.7 13 Noroeste 30 Noroeste 0 -- -- 22
2019-06-08 17:00:00 27.1 15 Noroeste 31 Noroeste 0 -- -- 23
2019-06-08 16:00:00 27.5 18 Noroeste 29 Noroeste 0 -- -- 23
2019-06-08 15:00:00 27.3 12 Norte 22 Noroeste 0 -- -- 22
2019-06-08 14:00:00 25.6 12 Noroeste 22 Noroeste 0 -- -- 26
2019-06-08 13:00:00 24.7 10 Norte 17 Norte 0 -- -- 27
2019-06-08 12:00:00 23.6 6 Nordeste 14 Este 0 -- -- 26
2019-06-08 11:00:00 21.7 4 Nordeste 10 Nordeste 0 -- -- 33
2019-06-08 10:00:00 19.4 4 Norte 8 Norte 0 -- -- 39
2019-06-08 09:00:00 17.1 3 Norte 6 Nordeste 0 -- -- 50
2019-06-08 08:00:00 13.7 0 Calma 3 Oeste 0 -- -- 54
2019-06-08 07:00:00 11.1 3 Noroeste 7 Noroeste 0 -- -- 59
2019-06-08 06:00:00 10.4 0 Calma 6 Sudoeste 0 -- -- 56
2019-06-08 05:00:00 10.7 2 Sudeste 6 Este 0 -- -- 54
2019-06-08 04:00:00 11.8 0 Calma 4 Oeste 0 -- -- 50
2019-06-08 03:00:00 13.4 0 Calma 4 Oeste 0 -- -- 45
2019-06-08 02:00:00 14 2 Sudoeste 4 Sudoeste 0 -- -- 44
2019-06-08 01:00:00 15.9 0 Calma 11 Noroeste 0 -- -- 41
2019-06-08 00:00:00 17.2 4 Noroeste 10 Noroeste 0 -- -- 37
2019-06-07 23:00:00 18.5 7 Noroeste 12 Noroeste 0 -- -- 37
2019-06-07 22:00:00 20.6 8 Noroeste 21 Noroeste 0 -- -- 31
2019-06-07 21:00:00 22.8 12 Noroeste 23 Noroeste 0 -- -- 26
2019-06-07 20:00:00 23.9 11 Norte 23 Noroeste 0 -- -- 25
2019-06-07 19:00:00 24.2 14 Norte 25 Noroeste 0 -- -- 24
2019-06-07 18:00:00 24.3 13 Noroeste 25 Oeste 0 -- -- 25
2019-06-07 17:00:00 23.4 14 Oeste 26 Noroeste 0 -- -- 26
2019-06-07 16:00:00 22.5 14 Noroeste 33 Noroeste 0 -- -- 27
2019-06-07 15:00:00 21.3 13 Noroeste 33 Norte 0 -- -- 30
2019-06-07 14:00:00 20.5 11 Noroeste 30 Noroeste 0 -- -- 34
2019-06-07 13:00:00 19.1 13 Norte 30 Norte 0 -- -- 38
2019-06-07 12:00:00 17.8 16 Norte 32 Noroeste 0 -- -- 41
2019-06-07 11:00:00 16.5 15 Noroeste 26 Noroeste 0 -- -- 52
2019-06-07 10:00:00 14.7 14 Norte 27 Norte 0 -- -- 61
2019-06-07 09:00:00 13.4 15 Noroeste 26 Noroeste 0 -- -- 68
2019-06-07 08:00:00 12.4 12 Noroeste 22 Noroeste 0 -- -- 78
2019-06-07 07:00:00 11.5 11 Noroeste 24 Noroeste 0 -- -- 75
2019-06-07 06:00:00 12.6 17 Noroeste 31 Noroeste 0 -- -- 75
2019-06-07 05:00:00 13.5 21 Noroeste 33 Noroeste 0 -- -- 69
2019-06-07 04:00:00 13.9 19 Noroeste 32 Noroeste 0 -- -- 64
2019-06-07 03:00:00 13.7 18 Noroeste 48 Noroeste 0 -- -- 71
2019-06-07 02:00:00 16.2 27 Noroeste 52 Noroeste 0 -- -- 76
2019-06-07 01:00:00 18.4 20 Noroeste 41 Oeste 0 -- -- 58
2019-06-07 00:00:00 19.1 20 Noroeste 40 Oeste 0 -- -- 53
2019-06-06 23:00:00 20 26 Noroeste 41 Noroeste 0 -- -- 47
2019-06-06 22:00:00 21 20 Noroeste 38 Noroeste 0 -- -- 42
2019-06-06 21:00:00 22.5 24 Noroeste 43 Noroeste 0 -- -- 38
2019-06-06 20:00:00 24.6 24 Noroeste 45 Noroeste 0 -- -- 32
2019-06-06 19:00:00 25.6 19 Noroeste 33 Noroeste 0 -- -- 28
2019-06-06 18:00:00 24.7 15 Noroeste 34 Noroeste 0 -- -- 28
2019-06-06 17:00:00 24.3 17 Noroeste 35 Norte 0 -- -- 29
2019-06-06 16:00:00 23.3 15 Norte 32 Noroeste 0 -- -- 33
2019-06-06 15:00:00 22.8 11 Noroeste 30 Noroeste 0 -- -- 31
2019-06-06 14:00:00 21.5 9 Nordeste 24 Noroeste 0 -- -- 32
2019-06-06 13:00:00 20.1 16 Noroeste 28 Noroeste 0 -- -- 35
2019-06-06 12:00:00 18.4 10 Norte 21 Noroeste 0 -- -- 40
2019-06-06 11:00:00 16.7 9 Norte 22 Noroeste 0 -- -- 45
2019-06-06 10:00:00 15.3 12 Noroeste 22 Noroeste 0 -- -- 51
2019-06-06 09:00:00 13.8 9 Noroeste 18 Oeste 0 -- -- 55
2019-06-06 08:00:00 12.3 8 Oeste 17 Oeste 0 -- -- 59
2019-06-06 07:00:00 11.2 8 Oeste 15 Oeste 0 -- -- 62
2019-06-06 06:00:00 11.5 8 Noroeste 16 Noroeste 0 -- -- 61
2019-06-06 05:00:00 12.5 6 Noroeste 19 Noroeste 0 -- -- 57
2019-06-06 04:00:00 13.1 9 Noroeste 22 Noroeste 0 -- -- 52
2019-06-06 03:00:00 14 12 Noroeste 27 Noroeste 0 -- -- 48
2019-06-06 02:00:00 15.3 16 Noroeste 26 Noroeste 0 -- -- 45
2019-06-06 01:00:00 16.1 13 Noroeste 22 Noroeste 0 -- -- 43
2019-06-06 00:00:00 17.2 13 Noroeste 22 Oeste 0 -- -- 43
2019-06-05 23:00:00 18.4 13 Oeste 23 Oeste 0 -- -- 37
2019-06-05 22:00:00 19.8 12 Noroeste 23 Noroeste 0 -- -- 35
2019-06-05 21:00:00 21.3 10 Noroeste 33 Noroeste 0 -- -- 30
2019-06-05 20:00:00 22.7 16 Noroeste 33 Oeste 0 -- -- 27
2019-06-05 19:00:00 23.3 22 Noroeste 38 Noroeste 0 -- -- 27
2019-06-05 18:00:00 23.3 16 Noroeste 32 Norte 0 -- -- 27
2019-06-05 17:00:00 22.7 20 Norte 40 Noroeste 0 -- -- 29
2019-06-05 16:00:00 21.9 21 Norte 41 Noroeste 0 -- -- 30
2019-06-05 15:00:00 21.7 21 Noroeste 43 Norte 0 -- -- 32
2019-06-05 14:00:00 21.6 21 Norte 37 Norte 0 -- -- 33
2019-06-05 13:00:00 20.3 22 Noroeste 44 Norte 0 -- -- 34
2019-06-05 12:00:00 19.1 21 Norte 34 Norte 0 -- -- 40
2019-06-05 11:00:00 17.4 18 Norte 37 Noroeste 0 -- -- 44
2019-06-05 10:00:00 15.9 19 Noroeste 39 Noroeste 0 -- -- 54
2019-06-05 09:00:00 13.9 21 Noroeste 35 Noroeste 0 -- -- 66
2019-06-05 08:00:00 12.6 16 Noroeste 27 Noroeste 0 -- -- 71
2019-06-05 07:00:00 11.6 17 Noroeste 28 Noroeste 0 -- -- 74
2019-06-05 06:00:00 12.2 16 Noroeste 30 Noroeste 0 -- -- 71
2019-06-05 05:00:00 12.9 18 Noroeste 32 Noroeste 0 -- -- 66
2019-06-05 04:00:00 13.6 17 Noroeste 36 Noroeste 0 -- -- 62
2019-06-05 03:00:00 14.5 18 Noroeste 33 Noroeste 0 -- -- 58
2019-06-05 02:00:00 16.1 13 Noroeste 37 Noroeste 0 -- -- 55
2019-06-05 01:00:00 17.7 18 Noroeste 30 Noroeste 0 -- -- 54
2019-06-05 00:00:00 18.9 20 Noroeste 37 Noroeste 0 -- -- 54
2019-06-04 23:00:00 20.2 21 Noroeste 33 Noroeste 0 -- -- 49
2019-06-04 22:00:00 21.6 19 Noroeste 38 Noroeste 0 -- -- 53
2019-06-04 21:00:00 22.3 25 Norte 44 Noroeste 0 -- -- 54
2019-06-04 20:00:00 25 28 Noroeste 43 Noroeste 0 -- -- 40
2019-06-04 19:00:00 27.2 23 Noroeste 42 Noroeste 0 -- -- 37
2019-06-04 18:00:00 27.7 25 Noroeste 41 Noroeste 0 -- -- 38
2019-06-04 17:00:00 27.2 24 Noroeste 37 Noroeste 0 -- -- 40
2019-06-04 16:00:00 26.8 23 Noroeste 39 Noroeste 0 -- -- 40
2019-06-04 15:00:00 26.1 17 Noroeste 35 Noroeste 0 -- -- 42
2019-06-04 14:00:00 25.2 19 Noroeste 31 Noroeste 0 -- -- 37
2019-06-04 13:00:00 23.3 17 Noroeste 31 Noroeste 0 -- -- 50
2019-06-04 12:00:00 22.3 16 Noroeste 30 Noroeste 0 -- -- 55
2019-06-04 11:00:00 21.6 15 Noroeste 29 Noroeste 0 -- -- 58
2019-06-04 10:00:00 19.6 14 Noroeste 26 Noroeste 0 -- -- 66
2019-06-04 09:00:00 18.6 15 Noroeste 28 Oeste 0 -- -- 74
2019-06-04 08:00:00 17.8 17 Noroeste 28 Oeste 0 -- -- 79
2019-06-04 07:00:00 17.8 14 Noroeste 25 Noroeste 0 -- -- 76
2019-06-04 06:00:00 18.7 12 Noroeste 24 Noroeste 0 -- -- 73
2019-06-04 05:00:00 19.8 11 Oeste 22 Noroeste 0 -- -- 69
2019-06-04 04:00:00 20.8 10 Noroeste 22 Noroeste 0 -- -- 63
2019-06-04 03:00:00 22 12 Noroeste 23 Noroeste 0 -- -- 58
2019-06-04 02:00:00 23.9 14 Noroeste 23 Noroeste 0 -- -- 46
2019-06-04 01:00:00 25.1 11 Oeste 18 Oeste 0 -- -- 39
2019-06-04 00:00:00 25.9 11 Noroeste 21 Noroeste 0 -- -- 36
2019-06-03 23:00:00 27 10 Noroeste 21 Oeste 0 -- -- 32
2019-06-03 22:00:00 28.9 12 Noroeste 26 Noroeste 0 -- -- 27
2019-06-03 21:00:00 31.7 17 Noroeste 32 Noroeste 0 -- -- 22
2019-06-03 20:00:00 33.7 19 Noroeste 33 Noroeste 0 -- -- 18
2019-06-03 19:00:00 34.4 18 Noroeste 32 Noroeste 0 -- -- 18
2019-06-03 18:00:00 34.9 14 Norte 31 Noroeste 0 -- -- 18
2019-06-03 17:00:00 34.4 15 Noroeste 33 Noroeste 0 -- -- 18
2019-06-03 16:00:00 34.1 18 Noroeste 29 Noroeste 0 -- -- 18
2019-06-03 15:00:00 33.7 14 Noroeste 28 Noroeste 0 -- -- 16
2019-06-03 14:00:00 32.2 13 Noroeste 24 Noroeste 0 -- -- 20
2019-06-03 13:00:00 30.4 12 Noroeste 20 Noroeste 0 -- -- 22
2019-06-03 12:00:00 28.2 12 Norte 18 Norte 0 -- -- 28
2019-06-03 11:00:00 26.2 9 Noroeste 24 Noroeste 0 -- -- 33
2019-06-03 10:00:00 25.1 14 Noroeste 22 Noroeste 0 -- -- 34
2019-06-03 09:00:00 23.5 9 Noroeste 19 Noroeste 0 -- -- 38
2019-06-03 08:00:00 22.1 3 Sudoeste 9 Oeste 0 -- -- 39
2019-06-03 07:00:00 21.6 6 Oeste 15 Oeste 0 -- -- 38
2019-06-03 06:00:00 22.2 10 Noroeste 23 Noroeste 0 -- -- 39
2019-06-03 05:00:00 22.9 14 Noroeste 22 Noroeste 0 -- -- 39
2019-06-03 04:00:00 24 8 Noroeste 21 Oeste 0 -- -- 36
2019-06-03 03:00:00 25.4 14 Noroeste 25 Noroeste 0 -- -- 33
2019-06-03 02:00:00 26.6 16 Noroeste 27 Oeste 0 -- -- 28
2019-06-03 01:00:00 27.5 14 Oeste 21 Oeste 0 -- -- 25
2019-06-03 00:00:00 27.9 9 Noroeste 21 Norte 0 -- -- 26
2019-06-02 23:00:00 29.8 14 Noroeste 34 Noroeste 0 -- -- 26
2019-06-02 22:00:00 30.2 5 Oeste 9 Noroeste 0 -- -- 25
2019-06-02 21:00:00 33.4 5 Noroeste 13 Noroeste 0 -- -- 21
2019-06-02 20:00:00 35.2 9 Noroeste 21 Noroeste 0 -- -- 20
2019-06-02 19:00:00 36.1 12 Norte 23 Noroeste 0 -- -- 18
2019-06-02 18:00:00 36.1 14 Noroeste 22 Noroeste 0 -- -- 17
2019-06-02 17:00:00 36.2 11 Norte 26 Nordeste 0 -- -- 18
2019-06-02 16:00:00 35.1 10 Norte 26 Norte 0 -- -- 23
2019-06-02 15:00:00 33.9 7 Nordeste 15 Norte 0 -- -- 23
2019-06-02 14:00:00 32.4 6 Noroeste 13 Nordeste 0 -- -- 24
2019-06-02 13:00:00 30.5 6 Nordeste 16 Este 0 -- -- 27
2019-06-02 12:00:00 29 6 Nordeste 17 Norte 0 -- -- 30
2019-06-02 11:00:00 28.1 6 Nordeste 12 Nordeste 0 -- -- 30
2019-06-02 10:00:00 27 4 Sur 12 Sur 0 -- -- 30
2019-06-02 09:00:00 24.8 8 Sur 12 Sur 0 -- -- 33
2019-06-02 08:00:00 21.1 5 Sudeste 9 Sur 0 -- -- 39
2019-06-02 07:00:00 20.2 5 Sur 21 Sudoeste 0 -- -- 37
2019-06-02 06:00:00 20.8 13 Sur 21 Sudoeste 0 -- -- 35
2019-06-02 05:00:00 21.1 13 Sur 19 Sur 0 -- -- 38
2019-06-02 04:00:00 20.3 3 Este 12 Sur 0 -- -- 44
2019-06-02 03:00:00 21.9 3 Nordeste 18 Sudoeste 0 -- -- 44
2019-06-02 02:00:00 25.7 13 Sudoeste 22 Sur 0 -- -- 30
2019-06-02 01:00:00 23.1 9 Sudoeste 10 Sudoeste 0 -- -- 35
2019-06-02 00:00:00 24.4 4 Sudoeste 13 Este 0 -- -- 36
2019-06-01 23:00:00 28.6 6 Noroeste 13 Noroeste 0 -- -- 24
2019-06-01 22:00:00 29.9 6 Oeste 14 Norte 0 -- -- 23
2019-06-01 21:00:00 34.7 3 Norte 8 Nordeste 0 -- -- 18
2019-06-01 20:00:00 36 5 Norte 14 Noroeste 0 -- -- 17
2019-06-01 19:00:00 36.3 5 Oeste 13 Norte 0 -- -- 16
2019-06-01 18:00:00 36.1 8 Nordeste 21 Nordeste 0 -- -- 17
2019-06-01 17:00:00 35.4 9 Norte 21 Este 0 -- -- 17
2019-06-01 16:00:00 35.2 9 Nordeste 17 Norte 0 -- -- 18
2019-06-01 15:00:00 33.6 8 Norte 17 Nordeste 0 -- -- 19
2019-06-01 14:00:00 32.1 8 Norte 15 Norte 0 -- -- 22
2019-06-01 13:00:00 31.6 6 Nordeste 14 Nordeste 0 -- -- 22
2019-06-01 12:00:00 29.8 5 Este 12 Norte 0 -- -- 25
2019-06-01 11:00:00 28.1 4 Este 9 Este 0 -- -- 28
2019-06-01 10:00:00 25.2 4 Este 10 Este 0 -- -- 35
2019-06-01 09:00:00 22.4 5 Este 8 Este 0 -- -- 42
2019-06-01 08:00:00 18.5 5 Este 7 Sur 0 -- -- 51
2019-06-01 07:00:00 15.9 3 Sur 10 Sudeste 0 -- -- 52
2019-06-01 06:00:00 16.8 3 Sudeste 6 Sur 0 -- -- 46
2019-06-01 05:00:00 18.2 2 Sudoeste 7 Noroeste 0 -- -- 40
2019-06-01 04:00:00 18.7 3 Sudeste 4 Sur 0 -- -- 39
2019-06-01 03:00:00 21.1 3 Sur 8 Sudoeste 0 -- -- 32
2019-06-01 02:00:00 21.5 8 Sudoeste 10 Sudoeste 0 -- -- 32
2019-06-01 01:00:00 21.4 6 Sudeste 9 Sudeste 0 -- -- 34
2019-06-01 00:00:00 23.1 7 Sur 9 Sudoeste 0 -- -- 32
2019-05-31 23:00:00 25.3 10 Sur 12 Sudoeste 0 -- -- 30
2019-05-31 22:00:00 29.7 0 Calma 6 Este 0 -- -- 27
2019-05-31 21:00:00 33 5 Este 12 Este 0 -- -- 21
2019-05-31 20:00:00 34.7 10 Nordeste 15 Este 0 -- -- 19
2019-05-31 19:00:00 35.1 4 Este 22 Este 0 -- -- 19
2019-05-31 18:00:00 35.2 8 Este 22 Sudeste 0 -- -- 17
2019-05-31 17:00:00 35.1 10 Nordeste 23 Este 0 -- -- 18
2019-05-31 16:00:00 34.4 13 Sudeste 27 Este 0 -- -- 19
2019-05-31 15:00:00 33.6 13 Sudeste 27 Sudeste 0 -- -- 20
2019-05-31 14:00:00 32.5 8 Nordeste 21 Este 0 -- -- 24
2019-05-31 13:00:00 31 10 Este 18 Este 0 -- -- 25
2019-05-31 12:00:00 29.5 8 Sudeste 15 Este 0 -- -- 28
2019-05-31 11:00:00 27.9 5 Sudeste 11 Este 0 -- -- 30
2019-05-31 10:00:00 25.7 6 Sudeste 12 Sur 0 -- -- 32
2019-05-31 09:00:00 22.4 3 Este 9 Sur 0 -- -- 44
2019-05-31 08:00:00 18.5 4 Sur 6 Sur 0 -- -- 49
2019-05-31 07:00:00 16.2 3 Sudoeste 14 Sudoeste 0 -- -- 54
2019-05-31 06:00:00 18.7 10 Sudoeste 13 Sudoeste 0 -- -- 45
2019-05-31 05:00:00 18.1 2 Sur 7 Sur 0 -- -- 40
2019-05-31 04:00:00 17.8 4 Sur 6 Este 0 -- -- 41
2019-05-31 03:00:00 19.1 3 Sur 5 Sur 0 -- -- 38
2019-05-31 02:00:00 20.7 3 Sur 13 Sudeste 0 -- -- 35
2019-05-31 01:00:00 21.4 9 Sur 11 Sur 0 -- -- 34
2019-05-31 00:00:00 22.8 10 Sur 12 Sur 0 -- -- 32
2019-05-30 23:00:00 24.3 5 Sudeste 11 Sudeste 0 -- -- 28
2019-05-30 22:00:00 27.3 6 Sudeste 10 Este 0 -- -- 24
2019-05-30 21:00:00 31 11 Este 23 Este 0 -- -- 21
2019-05-30 20:00:00 33 13 Este 23 Sudeste 0 -- -- 19
2019-05-30 19:00:00 33.5 16 Este 24 Este 0 -- -- 18
2019-05-30 18:00:00 33.9 13 Este 30 Sudeste 0 -- -- 18
2019-05-30 17:00:00 33.3 14 Sudeste 41 Sudeste 0 -- -- 19
2019-05-30 16:00:00 33 7 Sudeste 29 Este 0 -- -- 19
2019-05-30 15:00:00 31.6 14 Sudeste 31 Sudeste 0 -- -- 19
2019-05-30 14:00:00 30.6 14 Sudeste 32 Sudeste 0 -- -- 22
2019-05-30 13:00:00 29.3 18 Sudeste 33 Sudeste 0 -- -- 23
2019-05-30 12:00:00 27.4 20 Sudeste 32 Sudeste 0 -- -- 27
2019-05-30 11:00:00 25.6 19 Sudeste 30 Sudeste 0 -- -- 31
2019-05-30 10:00:00 23.9 22 Sudeste 34 Sudeste 0 -- -- 32
2019-05-30 09:00:00 22.5 16 Este 24 Este 0 -- -- 33
2019-05-30 08:00:00 20.8 14 Este 24 Sudeste 0 -- -- 35
2019-05-30 07:00:00 17.9 5 Sudoeste 16 Sudeste 0 -- -- 42
2019-05-30 06:00:00 18.7 9 Sudeste 15 Sudeste 0 -- -- 41
2019-05-30 05:00:00 17 10 Sur 14 Sur 0 -- -- 46
2019-05-30 04:00:00 18.2 5 Sudoeste 13 Este 0 -- -- 42
2019-05-30 03:00:00 19 7 Sur 14 Sudeste 0 -- -- 39
2019-05-30 02:00:00 19 3 Sudeste 6 Sudoeste 0 -- -- 39
2019-05-30 01:00:00 19.9 3 Sur 8 Sudeste 0 -- -- 36
2019-05-30 00:00:00 19.8 4 Sur 9 Sur 0 -- -- 36
2019-05-29 23:00:00 22.9 5 Sur 8 Sudeste 0 -- -- 30
2019-05-29 22:00:00 25.2 5 Sudeste 14 Este 0 -- -- 26
2019-05-29 21:00:00 28.6 11 Este 26 Nordeste 0 -- -- 23
2019-05-29 20:00:00 30.8 18 Este 29 Este 0 -- -- 20
2019-05-29 19:00:00 31.4 20 Este 28 Este 0 -- -- 20
2019-05-29 18:00:00 31.7 15 Este 30 Este 0 -- -- 21
2019-05-29 17:00:00 31.3 17 Este 25 Este 0 -- -- 22
2019-05-29 16:00:00 30.4 14 Este 27 Sudeste 0 -- -- 22
2019-05-29 15:00:00 28.8 12 Sur 30 Sur 0 -- -- 25
2019-05-29 14:00:00 27.7 15 Sudeste 31 Sudeste 0 -- -- 26
2019-05-29 13:00:00 26.3 17 Sudeste 31 Sudeste 0 -- -- 27
2019-05-29 12:00:00 25 18 Sudeste 36 Este 0 -- -- 28
2019-05-29 11:00:00 23.9 17 Sudeste 31 Sudeste 0 -- -- 29
2019-05-29 10:00:00 22.5 16 Sudeste 29 Sudeste 0 -- -- 31
2019-05-29 09:00:00 20.7 16 Sudeste 28 Sudeste 0 -- -- 34
2019-05-29 08:00:00 18.1 9 Sur 13 Sur 0 -- -- 41
2019-05-29 07:00:00 15.2 10 Sur 11 Sur 0 -- -- 46
2019-05-29 06:00:00 15.9 7 Sur 12 Sur 0 -- -- 41
2019-05-29 05:00:00 17.7 9 Sur 19 Sur 0 -- -- 36
2019-05-29 04:00:00 18.9 13 Sur 17 Sur 0 -- -- 33
2019-05-29 03:00:00 20.5 12 Sudeste 28 Sudeste 0 -- -- 30
2019-05-29 02:00:00 22.2 17 Sudeste 25 Sudeste 0 -- -- 28
2019-05-29 01:00:00 23.3 18 Sudeste 32 Este 0 -- -- 30
2019-05-29 00:00:00 24.3 15 Sudeste 33 Sudeste 0 -- -- 27
2019-05-28 23:00:00 24.1 7 Este 14 Este 0 -- -- 34
2019-05-28 22:00:00 26.8 3 Nordeste 13 Nordeste 0 -- -- 34
2019-05-28 21:00:00 30.5 9 Nordeste 17 Norte 0 -- -- 27
2019-05-28 20:00:00 32.7 9 Norte 25 Noroeste 0 -- -- 24
2019-05-28 19:00:00 33.3 10 Norte 29 Noroeste 0 -- -- 22
2019-05-28 18:00:00 33.3 15 Norte 31 Noroeste 0 -- -- 23
2019-05-28 17:00:00 33.5 12 Noroeste 31 Nordeste 0 -- -- 24
2019-05-28 16:00:00 32.8 8 Sudoeste 25 Oeste 0 -- -- 26
2019-05-28 15:00:00 31.7 8 Este 19 Sudeste 0 -- -- 28
2019-05-28 14:00:00 30.9 8 Nordeste 28 Nordeste 0 -- -- 29
2019-05-28 13:00:00 30 11 Nordeste 29 Nordeste 0 -- -- 29
2019-05-28 12:00:00 28.8 10 Sudeste 25 Este 0 -- -- 32
2019-05-28 11:00:00 27 12 Este 23 Sudeste 0 -- -- 36
2019-05-28 10:00:00 24.7 8 Sudeste 13 Sur 0 -- -- 43
2019-05-28 09:00:00 21.3 5 Este 7 Sudeste 0 -- -- 58
2019-05-28 08:00:00 16.6 3 Sur 4 Nordeste 0 -- -- 71
2019-05-28 07:00:00 14.9 2 Sur 5 Sur 0 -- -- 71
2019-05-28 06:00:00 15.7 2 Sudoeste 7 Sur 0 -- -- 70
2019-05-28 05:00:00 17 3 Sur 10 Sur 0 -- -- 65
2019-05-28 04:00:00 19.1 5 Este 18 Noroeste 0 -- -- 53
2019-05-28 03:00:00 22.8 12 Oeste 20 Oeste 0 -- -- 40
2019-05-28 02:00:00 22.9 10 Oeste 15 Oeste 0 -- -- 40
2019-05-28 01:00:00 23.4 8 Oeste 14 Noroeste 0 -- -- 39
2019-05-28 00:00:00 23.9 6 Oeste 12 Noroeste 0 -- -- 37
2019-05-27 23:00:00 24.7 3 Oeste 9 Norte 0 -- -- 35
2019-05-27 22:00:00 27 5 Norte 19 Norte 0 -- -- 30
2019-05-27 21:00:00 29.8 14 Norte 30 Norte 0 -- -- 27
2019-05-27 20:00:00 32.2 14 Norte 33 Norte 0 -- -- 25
2019-05-27 19:00:00 32.4 16 Norte 34 Noroeste 0 -- -- 26
2019-05-27 18:00:00 32.8 16 Norte 35 Noroeste 0 -- -- 26
2019-05-27 17:00:00 33.4 17 Norte 33 Norte 0 -- -- 25
2019-05-27 16:00:00 32.9 15 Noroeste 29 Noroeste 0 -- -- 24
2019-05-27 15:00:00 32.3 13 Norte 31 Noroeste 0 -- -- 26
2019-05-27 14:00:00 31.1 8 Noroeste 25 Norte 0 -- -- 27
2019-05-27 13:00:00 29.8 15 Noroeste 24 Noroeste 0 -- -- 26
2019-05-27 12:00:00 28.5 8 Noroeste 16 Noroeste 0 -- -- 29
2019-05-27 11:00:00 27.1 6 Nordeste 10 Nordeste 0 -- -- 32
2019-05-27 10:00:00 26 5 Sur 9 Sur 0 -- -- 31
2019-05-27 09:00:00 20.9 3 Sur 7 Este 0 -- -- 45
2019-05-27 08:00:00 16.4 0 Calma 7 Sudoeste 0 -- -- 61
2019-05-27 07:00:00 14.2 0 Calma 13 Noroeste 0 -- -- 65
2019-05-27 06:00:00 15.2 4 Este 6 Este 0 -- -- 59
2019-05-27 05:00:00 15.5 4 Sudeste 5 Este 0 -- -- 59
2019-05-27 04:00:00 17.3 6 Sur 10 Sudoeste 0 -- -- 48
2019-05-27 03:00:00 17.4 3 Sudeste 9 Sudoeste 0 -- -- 54
2019-05-27 02:00:00 19.3 6 Sudoeste 8 Sur 0 -- -- 46
2019-05-27 01:00:00 20.8 3 Sudeste 4 Sudeste 0 -- -- 45
2019-05-27 00:00:00 22.1 3 Sudeste 8 Nordeste 0 -- -- 44
2019-05-26 23:00:00 23.3 3 Nordeste 6 Nordeste 0 -- -- 39
2019-05-26 22:00:00 25.7 4 Este 14 Este 0 -- -- 35
2019-05-26 21:00:00 28.6 13 Este 22 Este 0 -- -- 29
2019-05-26 20:00:00 30.3 15 Este 26 Este 0 -- -- 26
2019-05-26 19:00:00 31.2 13 Este 30 Nordeste 0 -- -- 26
2019-05-26 18:00:00 31.4 9 Este 24 Nordeste 0 -- -- 26
2019-05-26 17:00:00 31.1 8 Noroeste 26 Noroeste 0 -- -- 27
2019-05-26 16:00:00 30.5 11 Norte 27 Norte 0 -- -- 27
2019-05-26 15:00:00 28.9 5 Noroeste 27 Nordeste 0 -- -- 28
2019-05-26 14:00:00 28.2 10 Nordeste 28 Este 0 -- -- 28
2019-05-26 13:00:00 27.2 15 Este 31 Este 0 -- -- 30
2019-05-26 12:00:00 25.5 15 Este 26 Este 0 -- -- 31
2019-05-26 11:00:00 24.2 14 Este 27 Sudeste 0 -- -- 33
2019-05-26 10:00:00 23 11 Este 22 Este 0 -- -- 35
2019-05-26 09:00:00 21.5 6 Este 12 Sudeste 0 -- -- 39
2019-05-26 08:00:00 17.8 2 Sudeste 6 Sur 0 -- -- 46
2019-05-26 07:00:00 15.7 5 Sudoeste 11 Sudoeste 0 -- -- 49
2019-05-26 06:00:00 15.8 8 Sudoeste 10 Sudoeste 0 -- -- 46
2019-05-26 05:00:00 16.7 4 Sur 10 Sudeste 0 -- -- 42
2019-05-26 04:00:00 17.5 6 Este 14 Sudeste 0 -- -- 44
2019-05-26 03:00:00 19.1 9 Este 20 Sudeste 0 -- -- 38
2019-05-26 02:00:00 18.7 4 Sur 16 Este 0 -- -- 40
2019-05-26 01:00:00 18.6 3 Sur 10 Este 0 -- -- 41
2019-05-26 00:00:00 18.8 0 Calma 6 Nordeste 0 -- -- 43
2019-05-25 23:00:00 20.6 3 Este 7 Nordeste 0 -- -- 37
2019-05-25 22:00:00 23.2 3 Sudeste 10 Este 0 -- -- 31
2019-05-25 21:00:00 26.4 9 Nordeste 22 Este 0 -- -- 27
2019-05-25 20:00:00 28 14 Este 22 Este 0 -- -- 23
2019-05-25 19:00:00 28.4 9 Este 27 Este 0 -- -- 24
2019-05-25 18:00:00 28.3 9 Sudeste 38 Sudeste 0 -- -- 25
2019-05-25 17:00:00 28 15 Este 24 Este 0 -- -- 25
2019-05-25 16:00:00 27.5 11 Este 31 Este 0 -- -- 27
2019-05-25 15:00:00 26.9 14 Este 34 Este 0 -- -- 28
2019-05-25 14:00:00 25.6 16 Este 31 Nordeste 0 -- -- 30
2019-05-25 13:00:00 24.6 18 Este 37 Este 0 -- -- 32
2019-05-25 12:00:00 22.6 19 Este 32 Este 0 -- -- 36
2019-05-25 11:00:00 21.5 16 Este 36 Este 0 -- -- 40
2019-05-25 10:00:00 19.8 22 Sudeste 35 Sudeste 0 -- -- 42
2019-05-25 09:00:00 18.7 19 Sudeste 29 Sudeste 0 -- -- 45
2019-05-25 08:00:00 16.6 17 Sudeste 24 Sudeste 0 -- -- 50
2019-05-25 07:00:00 13.9 7 Sudeste 13 Sudeste 0 -- -- 57
2019-05-25 06:00:00 14.1 11 Sudeste 15 Este 0 -- -- 56
2019-05-25 05:00:00 15.1 7 Este 14 Este 0 -- -- 51
2019-05-25 04:00:00 17.5 11 Sur 21 Sudeste 0 -- -- 43
2019-05-25 03:00:00 18.9 12 Sudeste 25 Sudeste 0 -- -- 40
2019-05-25 02:00:00 19.7 16 Sudeste 27 Sudeste 0 -- -- 37
2019-05-25 01:00:00 20.4 14 Sudeste 34 Este 0 -- -- 33
2019-05-25 00:00:00 21.6 21 Sudeste 35 Este 0 -- -- 32